Time;durP1;ratioP1;P1;durP2;ratioP2;P2;SDS_P1;SDS_P2;PMS_P1;PMS_P2;Temp;Humidity;BMP_temperature;BMP_pressure;BME280_temperature;BME280_humidity;BME280_pressure;Samples;Min_cycle;Max_cycle;Signal;HPM_P1;HPM_P2
2021/12/03 00:00:27;;;;;;;10.68;2.72;;;0.30;99.90;;;;;;5063762;28;20875;-80
2021/12/03 00:02:54;;;;;;;3.28;2.10;;;0.30;99.90;;;;;;5063527;28;20029;-78
2021/12/03 00:05:20;;;;;;;7.65;2.55;;;0.30;99.90;;;;;;5064070;28;20102;-76
2021/12/03 00:07:46;;;;;;;6.00;2.35;;;0.30;99.90;;;;;;5063562;28;20092;-77
2021/12/03 00:10:15;;;;;;;8.20;2.55;;;0.30;99.90;;;;;;5063716;28;20025;-77
2021/12/03 00:12:41;;;;;;;4.18;2.40;;;0.30;99.90;;;;;;5064924;28;20079;-78
2021/12/03 00:15:09;;;;;;;5.45;2.60;;;0.30;99.90;;;;;;5064985;28;20127;-79
2021/12/03 00:17:36;;;;;;;6.53;2.78;;;0.30;99.90;;;;;;5064003;28;20029;-79
2021/12/03 00:20:14;;;;;;;6.75;3.00;;;0.30;99.90;;;;;;5064968;28;20086;-81
2021/12/03 00:22:42;;;;;;;5.10;2.30;;;0.30;99.90;;;;;;5063403;28;20037;-80
2021/12/03 00:25:09;;;;;;;5.13;2.30;;;0.20;99.90;;;;;;5063623;28;20033;-78
2021/12/03 00:27:36;;;;;;;5.18;2.67;;;0.20;99.90;;;;;;5063762;28;20034;-78
2021/12/03 00:30:05;;;;;;;5.30;2.58;;;0.20;99.90;;;;;;5065167;28;20093;-81
2021/12/03 00:32:43;;;;;;;5.55;2.17;;;0.20;99.90;;;;;;5063348;28;20049;-79
2021/12/03 00:35:11;;;;;;;6.03;2.92;;;0.20;99.90;;;;;;5063300;28;20045;-80
2021/12/03 00:37:38;;;;;;;4.50;2.10;;;0.20;99.90;;;;;;5063819;28;20029;-77
2021/12/03 00:40:10;;;;;;;6.03;2.55;;;0.10;99.90;;;;;;5063444;28;20096;-80
2021/12/03 00:42:39;;;;;;;4.85;2.45;;;0.10;99.90;;;;;;5063494;28;20064;-79
2021/12/03 00:45:09;;;;;;;5.05;2.33;;;0.10;99.90;;;;;;5046940;28;20107;-79
2021/12/03 00:47:35;;;;;;;5.22;2.63;;;0.10;99.90;;;;;;5063680;28;20417;-79
2021/12/03 00:50:03;;;;;;;5.57;2.17;;;0.10;99.90;;;;;;5064935;28;20025;-81
2021/12/03 00:52:30;;;;;;;6.25;2.50;;;0.10;99.90;;;;;;5063445;28;20103;-79
2021/12/03 00:54:55;;;;;;;5.05;2.20;;;0.10;99.90;;;;;;5063545;28;20503;-79
2021/12/03 00:57:21;;;;;;;5.45;2.08;;;0.10;99.90;;;;;;5064523;28;20029;-78
2021/12/03 00:59:50;;;;;;;5.35;2.53;;;0.10;99.90;;;;;;5063208;28;20028;-80
2021/12/03 01:02:17;;;;;;;7.55;2.55;;;0.10;99.90;;;;;;5063134;28;20032;-78
2021/12/03 01:04:46;;;;;;;14.15;2.88;;;0.10;99.90;;;;;;5063529;28;20130;-77
2021/12/03 01:07:12;;;;;;;5.10;2.63;;;0.20;99.90;;;;;;5063509;28;20029;-79
2021/12/03 01:09:45;;;;;;;5.00;2.25;;;0.10;99.90;;;;;;5063191;28;20432;-81
2021/12/03 01:12:11;;;;;;;4.95;2.40;;;0.10;99.90;;;;;;5063166;28;20047;-79
2021/12/03 01:14:39;;;;;;;4.07;2.17;;;0.10;99.90;;;;;;5064541;28;20132;-79
2021/12/03 01:17:05;;;;;;;4.43;2.20;;;0.10;99.90;;;;;;5066335;28;20040;-79
2021/12/03 01:19:32;;;;;;;5.75;2.63;;;0.10;99.90;;;;;;5066681;28;20021;-79
2021/12/03 01:21:58;;;;;;;4.95;2.15;;;0.10;99.90;;;;;;5068356;28;20048;-79
2021/12/03 01:24:23;;;;;;;5.20;1.85;;;0.10;99.90;;;;;;5067840;28;20029;-80
2021/12/03 01:26:54;;;;;;;4.22;2.33;;;0.10;99.90;;;;;;5067049;28;20071;-78
2021/12/03 01:29:20;;;;;;;3.83;1.85;;;0.10;99.90;;;;;;5067664;28;20032;-76
2021/12/03 01:31:46;;;;;;;8.57;2.65;;;0.10;99.90;;;;;;5068434;28;20159;-77
2021/12/03 01:34:12;;;;;;;6.07;2.33;;;0.10;99.90;;;;;;5069722;28;20067;-79
2021/12/03 01:36:38;;;;;;;6.85;3.00;;;0.20;99.90;;;;;;5069450;28;20035;-80
2021/12/03 01:39:04;;;;;;;4.38;2.17;;;0.20;99.90;;;;;;5087930;28;20028;-80
2021/12/03 01:41:34;;;;;;;9.82;3.10;;;0.10;99.90;;;;;;5069658;28;20059;-81
2021/12/03 01:44:04;;;;;;;3.30;2.08;;;0.10;99.90;;;;;;5069771;28;20028;-78
2021/12/03 01:46:40;;;;;;;6.60;2.75;;;0.10;99.90;;;;;;5087359;28;20056;-80
2021/12/03 01:49:09;;;;;;;4.70;2.65;;;0.10;99.90;;;;;;5069394;28;20037;-79
2021/12/03 01:51:35;;;;;;;5.47;2.55;;;0.00;99.90;;;;;;5087512;28;20025;-78
2021/12/03 01:54:01;;;;;;;7.13;2.95;;;0.00;99.90;;;;;;5069142;28;20044;-80
2021/12/03 01:56:27;;;;;;;6.32;2.03;;;0.00;99.90;;;;;;5069595;28;20032;-79
2021/12/03 01:59:10;;;;;;;4.22;2.25;;;0.00;99.90;;;;;;5087067;28;20027;-80
2021/12/03 02:01:36;;;;;;;5.18;2.55;;;-0.10;99.90;;;;;;5069084;28;20037;-80
2021/12/03 02:04:04;;;;;;;8.80;3.65;;;-0.10;99.90;;;;;;5069681;28;20028;-80
2021/12/03 02:06:30;;;;;;;5.35;2.70;;;-0.10;99.90;;;;;;5069071;28;20376;-80
2021/12/03 02:08:57;;;;;;;4.35;2.38;;;-0.10;99.90;;;;;;5068905;28;20032;-79
2021/12/03 02:11:23;;;;;;;7.53;3.53;;;-0.10;99.90;;;;;;5068947;28;20044;-79
2021/12/03 02:13:49;;;;;;;5.78;2.78;;;0.00;99.90;;;;;;5068748;28;20051;-80
2021/12/03 02:16:18;;;;;;;9.68;3.15;;;0.00;99.90;;;;;;5068921;28;20020;-78
2021/12/03 02:18:43;;;;;;;7.18;3.38;;;0.00;99.90;;;;;;5069036;28;20021;-79
2021/12/03 02:21:17;;;;;;;9.55;3.30;;;0.00;99.90;;;;;;5068433;28;20048;-80
2021/12/03 02:23:43;;;;;;;9.13;3.22;;;0.00;99.90;;;;;;5086928;28;20056;-78
2021/12/03 02:26:10;;;;;;;6.80;2.85;;;0.10;99.90;;;;;;5086839;28;20032;-79
2021/12/03 02:28:42;;;;;;;8.52;3.92;;;0.00;99.90;;;;;;5067558;28;20128;-78
2021/12/03 02:31:10;;;;;;;9.00;3.35;;;0.00;99.90;;;;;;5068487;28;20025;-78
2021/12/03 02:33:36;;;;;;;9.18;3.58;;;0.00;99.90;;;;;;5065093;28;20057;-78
2021/12/03 02:36:03;;;;;;;5.25;3.20;;;0.00;99.90;;;;;;5065367;28;20028;-81
2021/12/03 02:38:29;;;;;;;10.52;3.88;;;0.00;99.90;;;;;;5065211;28;20047;-77
2021/12/03 02:40:55;;;;;;;11.02;3.83;;;0.00;99.90;;;;;;5065415;28;20056;-80
2021/12/03 02:43:31;;;;;;;6.82;4.35;;;0.00;99.90;;;;;;5064958;28;20036;-78
2021/12/03 02:45:57;;;;;;;10.93;4.10;;;0.00;99.90;;;;;;5065073;28;20021;-81
2021/12/03 02:48:25;;;;;;;6.97;3.67;;;0.00;99.90;;;;;;5065182;28;20048;-79
2021/12/03 02:50:51;;;;;;;6.82;3.35;;;0.00;99.90;;;;;;5065040;28;20037;-79
2021/12/03 02:53:17;;;;;;;5.50;2.70;;;0.00;99.90;;;;;;5066428;28;20049;-79
2021/12/03 02:55:46;;;;;;;6.82;3.67;;;0.00;99.90;;;;;;5065073;28;20021;-82
2021/12/03 02:58:12;;;;;;;7.88;3.67;;;0.00;99.90;;;;;;5066244;28;20071;-79
2021/12/03 03:00:39;;;;;;;7.68;3.15;;;0.10;99.90;;;;;;5064830;28;20041;-77
2021/12/03 03:03:05;;;;;;;8.25;3.55;;;0.10;99.90;;;;;;5064689;28;20029;-80
2021/12/03 03:05:32;;;;;;;6.70;3.10;;;0.10;99.90;;;;;;5064895;28;20101;-81
2021/12/03 03:07:58;;;;;;;5.60;2.65;;;0.10;99.90;;;;;;5065021;28;20091;-80
2021/12/03 03:10:31;;;;;;;8.98;3.25;;;0.20;99.90;;;;;;5048677;28;20558;-81
2021/12/03 03:12:59;;;;;;;4.25;3.00;;;0.20;99.90;;;;;;5084901;28;20467;-77
2021/12/03 03:15:25;;;;;;;5.78;3.15;;;0.20;99.90;;;;;;5084353;28;20037;-78
2021/12/03 03:17:51;;;;;;;5.68;3.10;;;0.20;99.90;;;;;;5084474;28;20028;-79
2021/12/03 03:20:18;;;;;;;5.00;3.00;;;0.20;99.90;;;;;;5085505;28;20049;-80
2021/12/03 03:22:44;;;;;;;5.80;3.22;;;0.20;99.90;;;;;;5084530;28;20028;-78
2021/12/03 03:25:14;;;;;;;5.10;2.90;;;0.20;99.90;;;;;;5084674;28;20096;-82
2021/12/03 03:27:40;;;;;;;10.10;3.58;;;0.30;99.90;;;;;;5084408;28;20020;-79
2021/12/03 03:30:11;;;;;;;6.35;3.03;;;0.30;99.90;;;;;;5084255;28;20024;-80
2021/12/03 03:32:37;;;;;;;4.22;2.60;;;0.30;99.90;;;;;;5084284;28;20135;-80
2021/12/03 03:35:03;;;;;;;7.45;3.58;;;0.30;99.90;;;;;;5085457;28;20054;-80
2021/12/03 03:37:30;;;;;;;8.20;3.38;;;0.30;99.90;;;;;;5084393;28;20032;-78
2021/12/03 03:39:56;;;;;;;6.88;3.20;;;0.30;99.90;;;;;;5083929;28;20078;-79
2021/12/03 03:42:22;;;;;;;10.75;3.28;;;0.30;99.90;;;;;;5083907;28;20031;-80
2021/12/03 03:44:47;;;;;;;6.10;3.42;;;0.40;99.90;;;;;;5083684;28;20125;-80
2021/12/03 03:47:13;;;;;;;7.70;3.63;;;0.40;99.90;;;;;;5083970;28;20028;-79
2021/12/03 03:49:39;;;;;;;5.68;3.05;;;0.40;99.90;;;;;;5083775;28;20107;-83
2021/12/03 03:52:07;;;;;;;6.00;3.22;;;0.40;99.90;;;;;;5084974;28;20112;-80
2021/12/03 03:54:33;;;;;;;5.03;3.38;;;0.40;99.90;;;;;;5084032;28;20044;-80
2021/12/03 03:57:01;;;;;;;7.70;3.15;;;0.40;99.90;;;;;;5083650;28;20032;-76
2021/12/03 03:59:27;;;;;;;7.47;3.33;;;0.50;99.90;;;;;;5083983;28;20032;-80
2021/12/03 04:01:56;;;;;;;6.20;3.40;;;0.50;99.90;;;;;;5083823;28;20031;-81
2021/12/03 04:04:22;;;;;;;9.00;3.45;;;0.50;99.90;;;;;;5083647;28;20039;-80
2021/12/03 04:06:50;;;;;;;6.57;3.30;;;0.50;99.90;;;;;;5084816;28;20420;-76
2021/12/03 04:09:15;;;;;;;6.30;3.30;;;0.50;99.90;;;;;;5083273;28;20035;-77
2021/12/03 04:11:44;;;;;;;12.95;3.08;;;0.50;99.90;;;;;;5083668;28;20056;-81
2021/12/03 04:14:10;;;;;;;8.52;3.33;;;0.60;99.90;;;;;;5084707;28;20037;-80
2021/12/03 04:16:37;;;;;;;6.28;3.03;;;0.60;99.90;;;;;;5083452;28;20103;-77
2021/12/03 04:19:03;;;;;;;10.07;3.70;;;0.60;99.90;;;;;;5083803;28;20028;-79
2021/12/03 04:21:29;;;;;;;5.70;3.42;;;0.60;99.90;;;;;;5083671;28;20066;-78
2021/12/03 04:23:54;;;;;;;14.55;4.05;;;0.60;99.90;;;;;;5084683;28;20029;-81
2021/12/03 04:26:20;;;;;;;6.45;3.25;;;0.70;99.90;;;;;;5083534;28;20028;-81
2021/12/03 04:28:47;;;;;;;7.95;3.25;;;0.70;99.90;;;;;;5083588;28;20032;-80
2021/12/03 04:31:13;;;;;;;3.03;2.30;;;0.70;99.90;;;;;;5083518;28;20028;-81
2021/12/03 04:33:39;;;;;;;6.25;2.50;;;0.70;99.90;;;;;;5082811;28;20044;-80
2021/12/03 04:36:05;;;;;;;7.38;3.15;;;0.80;99.90;;;;;;5083215;28;20093;-80
2021/12/03 04:38:42;;;;;;;5.63;2.63;;;0.80;99.90;;;;;;5084750;28;20025;-82
2021/12/03 04:41:08;;;;;;;4.65;2.28;;;0.80;99.90;;;;;;5084743;28;20067;-81
2021/12/03 04:43:34;;;;;;;6.55;2.95;;;0.90;99.90;;;;;;5084828;28;20036;-78
2021/12/03 04:46:01;;;;;;;6.07;3.05;;;0.90;99.90;;;;;;5084717;28;20028;-79
2021/12/03 04:48:36;;;;;;;4.65;2.58;;;0.90;99.90;;;;;;5083398;28;20036;-80
2021/12/03 04:51:02;;;;;;;5.05;2.50;;;0.90;99.90;;;;;;5084844;28;20060;-78
2021/12/03 04:53:28;;;;;;;4.97;2.33;;;0.90;99.90;;;;;;5087235;28;20467;-81
2021/12/03 04:55:54;;;;;;;6.32;2.70;;;0.90;99.90;;;;;;5086892;28;20032;-75
2021/12/03 04:58:20;;;;;;;5.75;3.63;;;0.90;99.90;;;;;;5088226;28;20033;-81
2021/12/03 05:00:53;;;;;;;4.82;2.97;;;0.90;99.90;;;;;;5088270;28;20025;-79
2021/12/03 05:03:23;;;;;;;5.68;3.08;;;0.90;99.90;;;;;;5087030;28;20037;-79
2021/12/03 05:05:54;;;;;;;6.40;4.00;;;0.90;99.90;;;;;;5088183;28;20051;-78
2021/12/03 05:08:20;;;;;;;8.30;3.38;;;1.00;99.90;;;;;;5086754;28;20055;-78
2021/12/03 05:10:53;;;;;;;10.38;3.65;;;1.00;99.90;;;;;;5086777;28;20033;-82
2021/12/03 05:13:28;;;;;;;6.97;2.83;;;1.00;99.90;;;;;;5086687;28;20032;-79
2021/12/03 05:15:55;;;;;;;10.38;3.88;;;1.00;99.90;;;;;;5086417;28;20075;-78
2021/12/03 05:18:23;;;;;;;6.35;2.95;;;1.00;99.90;;;;;;5086684;28;20044;-80
2021/12/03 05:20:51;;;;;;;7.30;3.70;;;1.00;99.90;;;;;;5087951;28;20124;-80
2021/12/03 05:23:18;;;;;;;7.40;3.80;;;1.00;99.90;;;;;;5088084;28;20079;-84
2021/12/03 05:25:43;;;;;;;5.95;3.30;;;1.00;99.90;;;;;;5086545;28;20020;-85
2021/12/03 05:28:10;;;;;;;6.75;2.72;;;1.00;99.90;;;;;;5086643;28;20032;-81
2021/12/03 05:30:37;;;;;;;6.63;3.58;;;1.00;99.90;;;;;;5086883;28;20115;-79
2021/12/03 05:33:04;;;;;;;6.55;3.60;;;1.00;99.90;;;;;;5086532;28;20060;-83
2021/12/03 05:35:30;;;;;;;7.85;4.18;;;1.00;99.90;;;;;;5087897;28;20501;-77
2021/12/03 05:37:56;;;;;;;12.07;4.88;;;1.00;99.90;;;;;;5086570;28;20066;-79
2021/12/03 05:40:22;;;;;;;15.25;4.55;;;1.10;99.90;;;;;;5086264;28;20028;-80
2021/12/03 05:42:49;;;;;;;6.43;4.03;;;1.10;99.90;;;;;;5086373;28;20032;-79
2021/12/03 05:45:19;;;;;;;6.82;3.80;;;1.10;99.90;;;;;;5087552;28;20068;-81
2021/12/03 05:47:45;;;;;;;8.05;3.83;;;1.10;99.90;;;;;;5086176;28;20033;-84
2021/12/03 05:50:13;;;;;;;10.00;4.55;;;1.10;99.90;;;;;;5086086;28;20054;-78
2021/12/03 05:52:39;;;;;;;11.25;4.72;;;1.20;99.90;;;;;;5086267;28;20024;-79
2021/12/03 05:55:07;;;;;;;7.75;3.78;;;1.20;99.90;;;;;;5086546;28;20501;-81
2021/12/03 05:57:33;;;;;;;7.60;4.18;;;1.20;99.90;;;;;;5087061;28;20088;-82
2021/12/03 06:00:01;;;;;;;10.30;4.68;;;1.20;99.90;;;;;;5086004;28;20040;-79
2021/12/03 06:02:26;;;;;;;9.52;4.13;;;1.20;99.90;;;;;;5087548;28;20036;-83
2021/12/03 06:04:52;;;;;;;7.50;3.97;;;1.20;99.90;;;;;;5086954;28;20044;-81
2021/12/03 06:07:18;;;;;;;11.70;4.20;;;1.20;99.90;;;;;;5085629;28;20029;-81
2021/12/03 06:09:45;;;;;;;14.70;4.15;;;1.10;99.90;;;;;;5086551;28;20491;-82
2021/12/03 06:12:11;;;;;;;11.50;5.50;;;1.10;99.90;;;;;;5084968;28;20028;-81
2021/12/03 06:14:47;;;;;;;8.27;4.07;;;1.10;99.90;;;;;;5074724;28;20103;-84
2021/12/03 06:17:14;;;;;;;10.55;4.13;;;1.10;99.90;;;;;;5065562;28;20092;-88
2021/12/03 06:19:40;;;;;;;8.18;4.00;;;1.00;99.90;;;;;;5065395;28;20025;-81
2021/12/03 06:22:10;;;;;;;9.70;4.38;;;1.00;99.90;;;;;;5065423;28;20430;-75
2021/12/03 06:24:37;;;;;;;12.05;4.38;;;1.00;99.90;;;;;;5066510;28;20118;-82
2021/12/03 06:27:10;;;;;;;6.82;3.83;;;1.00;99.90;;;;;;5065116;28;20035;-81
2021/12/03 06:29:36;;;;;;;10.52;4.47;;;1.00;99.90;;;;;;5066438;28;20028;-84
2021/12/03 06:32:04;;;;;;;10.50;4.60;;;1.00;99.90;;;;;;5065044;28;20053;-82
2021/12/03 06:34:32;;;;;;;6.05;3.17;;;1.00;99.90;;;;;;5065614;28;20082;-83
2021/12/03 06:36:57;;;;;;;14.60;4.88;;;0.90;99.90;;;;;;5064785;28;20037;-79
2021/12/03 06:39:26;;;;;;;7.15;3.33;;;0.90;99.90;;;;;;5082890;28;20116;-84
2021/12/03 06:41:52;;;;;;;23.08;5.93;;;0.90;99.90;;;;;;5086118;28;20109;-79
2021/12/03 06:44:17;;;;;;;10.57;5.15;;;0.90;99.90;;;;;;5085969;28;20044;-79
2021/12/03 06:46:53;;;;;;;12.52;5.65;;;0.90;99.90;;;;;;5084796;28;20028;-82
2021/12/03 06:49:33;;;;;;;10.65;5.13;;;0.90;99.90;;;;;;5086844;28;20028;-80
2021/12/03 06:52:04;;;;;;;13.07;5.05;;;0.90;99.90;;;;;;5084957;28;20473;-77
2021/12/03 06:54:34;;;;;;;11.25;4.78;;;0.90;99.90;;;;;;5084750;28;20033;-76
2021/12/03 06:57:03;;;;;;;12.27;5.22;;;0.90;99.90;;;;;;5084866;28;20398;-81
2021/12/03 06:59:28;;;;;;;13.43;6.32;;;0.90;99.90;;;;;;5084531;28;20926;-75
2021/12/03 07:01:55;;;;;;;13.75;5.55;;;0.90;99.90;;;;;;5085395;28;20036;-77
2021/12/03 07:04:31;;;;;;;12.13;5.85;;;0.90;99.90;;;;;;5084236;28;20047;-82
2021/12/03 07:06:57;;;;;;;10.38;5.50;;;0.90;99.90;;;;;;5080137;28;20033;-82
2021/12/03 07:09:23;;;;;;;15.07;6.47;;;0.90;99.90;;;;;;5064152;28;20108;-80
2021/12/03 07:11:48;;;;;;;13.68;6.35;;;0.90;99.90;;;;;;5063431;28;20029;-81
2021/12/03 07:14:14;;;;;;;12.80;6.15;;;0.90;99.90;;;;;;5063634;28;20101;-84
2021/12/03 07:16:49;;;;;;;11.32;6.15;;;0.90;99.90;;;;;;5075213;28;20029;-82
2021/12/03 07:19:31;;;;;;;11.75;5.70;;;0.90;99.90;;;;;;5074601;28;20033;-84
2021/12/03 07:21:56;;;;;;;11.93;6.07;;;0.90;99.90;;;;;;5082509;28;20036;-81
2021/12/03 07:24:22;;;;;;;15.43;6.35;;;0.90;99.90;;;;;;5101306;28;20039;-83
2021/12/03 07:26:48;;;;;;;18.35;6.90;;;0.90;99.90;;;;;;5094525;28;20033;-81
2021/12/03 07:29:14;;;;;;;16.45;7.57;;;0.90;99.90;;;;;;5074486;28;20097;-80
2021/12/03 07:31:40;;;;;;;16.85;7.72;;;0.90;99.90;;;;;;5064930;28;20103;-84
2021/12/03 07:34:06;;;;;;;21.23;8.80;;;0.90;99.90;;;;;;5067431;28;20039;-78
2021/12/03 07:36:36;;;;;;;22.10;6.50;;;0.90;99.90;;;;;;5070334;28;20068;-78
2021/12/03 07:39:04;;;;;;;22.80;8.13;;;0.90;99.90;;;;;;5067136;28;20032;-80
2021/12/03 07:41:31;;;;;;;21.05;8.43;;;0.90;99.90;;;;;;5071415;28;20036;-76
2021/12/03 07:43:57;;;;;;;19.58;8.77;;;0.90;99.90;;;;;;5075969;28;20119;-79
2021/12/03 07:46:22;;;;;;;18.58;8.90;;;0.90;99.90;;;;;;5078676;28;20081;-80
2021/12/03 07:48:49;;;;;;;21.48;8.13;;;0.90;99.90;;;;;;5086696;28;20043;-76
2021/12/03 07:51:16;;;;;;;14.05;7.63;;;0.90;99.90;;;;;;5100165;28;20111;-76
2021/12/03 07:53:51;;;;;;;23.88;9.43;;;0.80;99.90;;;;;;5079102;28;20036;-83
2021/12/03 07:56:16;;;;;;;22.95;8.10;;;0.90;99.90;;;;;;5067690;28;20111;-74
2021/12/03 07:58:42;;;;;;;26.48;9.18;;;0.90;99.90;;;;;;5084746;28;20036;-76
2021/12/03 08:01:09;;;;;;;20.40;8.23;;;1.00;99.90;;;;;;5078435;28;20040;-77
2021/12/03 08:03:35;;;;;;;26.77;10.27;;;1.00;99.90;;;;;;5091778;28;20072;-76
2021/12/03 08:06:09;;;;;;;24.02;10.38;;;1.00;99.90;;;;;;5079484;28;20035;-77
2021/12/03 08:08:38;;;;;;;28.70;10.85;;;1.10;99.90;;;;;;5073836;28;20055;-77
2021/12/03 08:11:06;;;;;;;25.08;9.57;;;1.30;99.90;;;;;;5084863;28;20029;-78
2021/12/03 08:13:33;;;;;;;18.17;7.78;;;1.40;99.90;;;;;;5066858;28;20032;-75
2021/12/03 08:15:59;;;;;;;18.05;7.35;;;1.50;99.90;;;;;;5066773;28;20060;-74
2021/12/03 08:18:25;;;;;;;21.13;7.57;;;1.70;99.90;;;;;;5096356;28;20050;-80
2021/12/03 08:20:53;;;;;;;22.20;9.27;;;1.90;99.90;;;;;;5074705;28;20762;-74
2021/12/03 08:23:18;;;;;;;24.73;9.90;;;2.10;99.90;;;;;;5100030;28;20024;-73
2021/12/03 08:25:44;;;;;;;25.48;8.13;;;2.20;99.90;;;;;;5104130;28;20532;-77
2021/12/03 08:28:11;;;;;;;18.90;8.50;;;2.40;99.90;;;;;;5070951;28;20036;-76
2021/12/03 08:30:37;;;;;;;20.13;8.45;;;2.50;99.90;;;;;;5088873;28;20025;-78
2021/12/03 08:33:03;;;;;;;23.85;9.00;;;2.60;99.90;;;;;;5070521;28;20070;-78
2021/12/03 08:35:29;;;;;;;20.33;9.23;;;2.60;99.90;;;;;;5100109;28;20066;-78
2021/12/03 08:37:56;;;;;;;23.33;8.27;;;2.70;99.90;;;;;;5107598;28;20028;-76
2021/12/03 08:40:23;;;;;;;17.67;8.10;;;2.60;99.90;;;;;;5070273;28;20025;-77
2021/12/03 08:42:49;;;;;;;23.23;8.27;;;2.70;99.90;;;;;;5073067;28;20028;-75
2021/12/03 08:45:18;;;;;;;32.13;9.55;;;2.70;99.90;;;;;;5108555;28;20081;-78
2021/12/03 08:47:47;;;;;;;22.20;9.35;;;2.60;99.90;;;;;;5090298;28;20051;-76
2021/12/03 08:50:16;;;;;;;24.45;9.32;;;2.40;99.90;;;;;;5107133;28;20103;-76
2021/12/03 08:55:27;;;;;;;24.08;8.70;;;2.30;99.90;;;;;;5108504;28;20127;-74
2021/12/03 08:57:52;;;;;;;33.03;9.35;;;2.20;99.90;;;;;;5108397;28;20036;-74
2021/12/03 09:00:19;;;;;;;26.05;9.25;;;2.30;99.90;;;;;;5097459;28;20642;-76
2021/12/03 09:02:45;;;;;;;20.85;8.63;;;2.20;99.90;;;;;;5082946;28;20031;-78
2021/12/03 09:05:19;;;;;;;21.33;9.40;;;2.20;99.90;;;;;;5107786;28;20053;-78
2021/12/03 09:07:44;;;;;;;29.58;9.00;;;2.10;99.90;;;;;;5100164;28;20461;-77
2021/12/03 09:10:13;;;;;;;26.70;10.27;;;2.10;99.90;;;;;;5073068;28;20025;-79
2021/12/03 09:12:41;;;;;;;27.10;8.85;;;2.10;99.90;;;;;;5085510;28;20430;-78
2021/12/03 09:15:10;;;;;;;23.90;9.38;;;2.00;99.90;;;;;;5106439;28;20115;-78
2021/12/03 09:17:43;;;;;;;18.20;8.18;;;2.00;99.90;;;;;;5087540;28;20059;-76
2021/12/03 09:23:04;;;;;;;21.77;9.13;;;2.00;99.90;;;;;;5108086;28;20447;-73
2021/12/03 09:25:42;;;;;;;22.45;8.90;;;2.00;99.90;;;;;;5108041;28;20422;-77
2021/12/03 09:28:12;;;;;;;37.75;9.98;;;2.00;99.90;;;;;;5107036;28;20024;-79
2021/12/03 09:30:47;;;;;;;22.10;6.93;;;2.00;99.90;;;;;;5100508;28;20054;-76
2021/12/03 09:33:17;;;;;;;25.77;8.80;;;2.00;99.90;;;;;;5099120;28;20040;-76
2021/12/03 09:35:47;;;;;;;23.58;7.57;;;2.00;99.90;;;;;;5075451;28;20609;-77
2021/12/03 09:38:13;;;;;;;24.00;8.88;;;2.00;99.90;;;;;;5087007;28;20028;-78
2021/12/03 09:40:41;;;;;;;31.60;11.57;;;2.00;99.90;;;;;;5087753;28;20043;-78
2021/12/03 09:43:14;;;;;;;40.08;11.40;;;2.00;99.90;;;;;;5100184;28;20036;-76
2021/12/03 09:45:51;;;;;;;21.25;7.50;;;2.00;99.90;;;;;;5092812;28;20025;-74
2021/12/03 09:48:39;;;;;;;30.83;11.20;;;2.10;99.90;;;;;;5077252;28;20040;-77
2021/12/03 09:51:05;;;;;;;26.00;9.93;;;2.10;99.90;;;;;;5093022;28;20039;-76
2021/12/03 09:56:44;;;;;;;22.77;8.55;;;2.10;99.90;;;;;;5028349;28;20069;-75
2021/12/03 10:02:25;;;;;;;36.72;10.65;;;2.10;99.90;;;;;;5092365;28;20494;-79
2021/12/03 10:18:53;;;;;;;32.63;10.23;;;2.20;99.90;;;;;;5089329;28;20396;-76
2021/12/03 10:39:33;;;;;;;31.25;10.27;;;2.20;99.90;;;;;;5089191;28;20065;-77
2021/12/03 10:45:06;;;;;;;39.35;10.25;;;2.20;99.90;;;;;;5088064;28;20032;-76
2021/12/03 10:52:59;;;;;;;27.08;9.77;;;2.30;99.90;;;;;;5105973;28;20396;-76
2021/12/03 11:21:01;;;;;;;35.67;10.35;;;2.40;99.90;;;;;;5090236;28;20058;-77
2021/12/03 11:55:07;;;;;;;41.05;9.80;;;2.70;99.90;;;;;;5105572;28;20058;-75
2021/12/03 12:15:40;;;;;;;25.98;8.35;;;2.90;99.90;;;;;;5105367;28;20067;-75
2021/12/03 12:33:08;;;;;;;25.48;8.65;;;3.10;99.90;;;;;;5083923;28;20078;-77
2021/12/03 13:22:44;;;;;;;19.80;5.63;;;3.00;99.90;;;;;;5106076;28;20036;-78
2021/12/03 13:39:51;;;;;;;16.52;5.43;;;2.80;99.90;;;;;;5102210;28;20047;-79
2021/12/03 14:25:16;;;;;;;18.45;5.05;;;2.40;99.90;;;;;;5085434;28;20047;-80
2021/12/03 14:40:09;;;;;;;10.20;4.93;;;2.40;99.90;;;;;;5089153;28;20035;-79
2021/12/03 14:56:41;;;;;;;20.92;5.75;;;2.40;99.90;;;;;;5092868;28;20029;-76
2021/12/03 14:59:16;;;;;;;14.10;5.93;;;2.50;99.90;;;;;;5085108;28;20042;-72
2021/12/03 15:04:55;;;;;;;16.42;4.78;;;2.50;99.90;;;;;;5095126;28;20068;-72
2021/12/03 15:07:15;;;;;;;32.58;4.57;;;2.50;99.90;;;;;;5087939;28;20036;-78
2021/12/03 15:09:45;;;;;;;18.80;5.63;;;2.50;99.90;;;;;;5085972;28;20039;-80
2021/12/03 15:12:38;;;;;;;16.20;5.70;;;2.50;99.90;;;;;;5091350;28;20046;-77
2021/12/03 15:18:35;;;;;;;11.43;4.80;;;2.50;99.90;;;;;;5097137;28;20106;-74
2021/12/03 15:24:04;;;;;;;12.93;5.07;;;2.50;99.90;;;;;;5087689;28;20035;-71
2021/12/03 15:31:41;;;;;;;16.98;5.70;;;2.50;99.90;;;;;;5088396;28;20614;-73
2021/12/03 15:36:58;;;;;;;11.70;4.55;;;2.60;99.90;;;;;;5087984;28;20056;-78
2021/12/03 15:39:43;;;;;;;13.70;4.82;;;2.60;99.90;;;;;;5102433;28;20054;-80
2021/12/03 15:56:19;;;;;;;11.32;5.45;;;2.60;99.90;;;;;;5084917;28;20090;-80
2021/12/03 16:04:15;;;;;;;12.98;5.03;;;2.70;99.90;;;;;;5105444;28;20050;-76
2021/12/03 16:06:49;;;;;;;11.63;5.53;;;2.70;99.90;;;;;;5087008;28;20035;-80
2021/12/03 16:11:46;;;;;;;23.77;8.07;;;2.70;99.90;;;;;;5084639;28;20457;-79
2021/12/03 16:17:17;;;;;;;;;;;2.70;99.90;;;;;;5092800;28;20128;-79
2021/12/03 16:22:39;;;;;;;12.95;5.65;;;2.80;99.90;;;;;;5086736;28;20032;-80
2021/12/03 16:47:21;;;;;;;19.65;6.78;;;3.00;99.90;;;;;;5083894;28;20036;-76
2021/12/03 16:52:21;;;;;;;8.48;4.63;;;3.00;99.90;;;;;;5086431;28;20078;-76
2021/12/03 16:54:54;;;;;;;19.73;6.72;;;3.00;99.90;;;;;;5068898;28;20036;-79
2021/12/03 16:57:19;;;;;;;6.43;3.08;;;3.00;99.90;;;;;;5100604;28;20039;-77
2021/12/03 16:59:46;;;;;;;20.15;6.90;;;3.00;99.90;;;;;;5104201;28;20032;-73
2021/12/03 17:02:19;;;;;;;11.15;5.20;;;3.00;99.90;;;;;;5094658;28;20042;-74
2021/12/03 17:50:23;;;;;;;12.15;5.22;;;3.20;99.90;;;;;;5088399;28;20054;-79
2021/12/03 17:58:02;;;;;;;12.43;4.97;;;3.30;99.90;;;;;;5091535;28;20063;-80
2021/12/03 18:00:46;;;;;;;10.98;5.20;;;3.30;99.90;;;;;;5069079;28;20035;-76
2021/12/03 18:03:21;;;;;;;10.13;4.97;;;3.30;99.90;;;;;;5086651;28;20071;-77
2021/12/03 18:06:12;;;;;;;12.88;4.32;;;3.30;99.90;;;;;;5086823;28;20036;-77
2021/12/03 18:44:16;;;;;;;11.88;5.38;;;3.40;99.90;;;;;;5066357;28;20082;-76
2021/12/03 18:54:47;;;;;;;11.48;4.90;;;3.50;99.90;;;;;;5086158;28;20031;-76
2021/12/03 18:57:20;;;;;;;18.20;6.32;;;3.50;99.90;;;;;;5085964;28;20028;-80
2021/12/03 18:59:58;;;;;;;10.05;4.45;;;3.50;99.90;;;;;;5077363;28;20021;-76
2021/12/03 19:02:25;;;;;;;15.18;5.28;;;3.50;99.90;;;;;;5078677;28;20111;-79
2021/12/03 19:08:04;;;;;;;13.05;4.82;;;3.50;99.90;;;;;;5078574;28;20029;-75
2021/12/03 19:10:19;;;;;;;16.33;4.05;;;3.60;99.90;;;;;;5058942;28;20040;-78
2021/12/03 19:12:51;;;;;;;15.98;7.43;;;3.60;99.90;;;;;;5081965;28;20032;-75
2021/12/03 19:15:17;;;;;;;17.38;7.47;;;3.50;99.90;;;;;;5085940;28;20449;-77
2021/12/03 19:17:45;;;;;;;20.50;6.85;;;3.60;99.90;;;;;;5084346;28;20020;-75
2021/12/03 19:20:15;;;;;;;18.45;5.93;;;3.60;99.90;;;;;;5075203;28;20028;-74
2021/12/03 19:22:41;;;;;;;13.68;5.55;;;3.60;99.90;;;;;;5064403;28;20035;-76
2021/12/03 19:25:07;;;;;;;20.15;7.40;;;3.60;99.90;;;;;;5064421;28;20033;-77
2021/12/03 19:27:33;;;;;;;13.50;6.03;;;3.60;99.90;;;;;;5065715;28;20033;-78
2021/12/03 19:30:00;;;;;;;15.68;7.28;;;3.60;99.90;;;;;;5065153;28;20477;-75
2021/12/03 19:32:30;;;;;;;13.90;5.93;;;3.60;99.90;;;;;;5066179;28;20080;-75
2021/12/03 19:34:56;;;;;;;19.08;7.00;;;3.60;99.90;;;;;;5083946;28;20064;-75
2021/12/03 19:37:25;;;;;;;19.17;6.00;;;3.70;99.90;;;;;;5091914;28;20111;-76
2021/12/03 19:39:51;;;;;;;14.90;6.13;;;3.70;99.90;;;;;;5080076;28;20101;-74
2021/12/03 19:42:23;;;;;;;19.05;7.18;;;3.70;99.90;;;;;;5066926;28;20029;-76
2021/12/03 19:44:55;;;;;;;14.23;6.75;;;3.70;99.90;;;;;;5084646;28;20063;-75
2021/12/03 19:48:22;;;;;;;19.58;7.53;;;3.70;99.90;;;;;;5085441;28;20075;-78
2021/12/03 19:55:37;;;;;;;17.67;7.80;;;3.80;99.90;;;;;;5102905;28;20088;-77
2021/12/03 19:58:09;;;;;;;20.85;7.20;;;3.70;99.90;;;;;;5087218;28;20078;-79
2021/12/03 20:00:37;;;;;;;22.10;8.13;;;3.70;99.90;;;;;;5105532;28;20036;-81
2021/12/03 20:03:04;;;;;;;19.63;6.90;;;3.70;99.90;;;;;;5105595;28;20028;-77
2021/12/03 20:05:30;;;;;;;19.60;7.20;;;3.70;99.90;;;;;;5105505;28;20472;-76
2021/12/03 20:07:59;;;;;;;19.08;6.38;;;3.70;99.90;;;;;;5086894;28;20404;-77
2021/12/03 20:10:27;;;;;;;16.50;6.53;;;3.70;99.90;;;;;;5086861;28;20031;-78
2021/12/03 20:12:53;;;;;;;11.77;5.40;;;3.70;99.90;;;;;;5105165;28;20060;-79
2021/12/03 20:15:47;;;;;;;11.45;4.40;;;3.80;99.90;;;;;;5084131;28;20028;-78
2021/12/03 20:18:28;;;;;;;17.40;7.88;;;3.80;99.90;;;;;;5083281;28;20044;-78
2021/12/03 20:20:54;;;;;;;15.45;5.45;;;3.80;99.90;;;;;;5073784;28;20039;-76
2021/12/03 20:23:35;;;;;;;17.88;6.80;;;3.80;99.90;;;;;;5105033;28;20041;-77